createdAt,value
2019-04-14T00:02:20.691Z,37.70
2019-04-14T00:05:08.296Z,38.83
2019-04-14T00:07:53.844Z,38.63
2019-04-14T00:10:39.970Z,38.83
2019-04-14T00:13:26.261Z,38.57
2019-04-14T00:16:11.758Z,39.40
2019-04-14T00:18:57.601Z,40.33
2019-04-14T00:21:43.277Z,39.33
2019-04-14T00:24:29.108Z,37.47
2019-04-14T00:27:14.963Z,40.87
2019-04-14T00:30:01.147Z,37.80
2019-04-14T00:32:51.005Z,37.67
2019-04-14T00:35:49.632Z,40.57
2019-04-14T00:38:36.917Z,36.70
2019-04-14T00:41:34.286Z,38.60
2019-04-14T00:44:15.160Z,38.97
2019-04-14T00:49:48.637Z,36.93
2019-04-14T00:52:34.273Z,38.90
2019-04-14T00:55:20.481Z,38.67
2019-04-14T00:58:05.973Z,36.63
2019-04-14T01:00:51.777Z,37.60
2019-04-14T01:03:37.335Z,36.47
2019-04-14T01:06:22.939Z,36.87
2019-04-14T01:09:10.753Z,39.17
2019-04-14T01:11:57.345Z,34.20
2019-04-14T01:14:43.140Z,37.13
2019-04-14T01:17:28.696Z,35.97
2019-04-14T01:20:14.610Z,39.17
2019-04-14T01:22:59.906Z,36.83
2019-04-14T01:25:45.357Z,36.93
2019-04-14T01:28:30.870Z,36.23
2019-04-14T01:31:16.217Z,39.27
2019-04-14T01:34:02.010Z,35.70
2019-04-14T01:36:47.499Z,37.07
2019-04-14T01:39:32.903Z,34.50
2019-04-14T01:42:18.075Z,36.77
2019-04-14T01:45:05.692Z,39.27
2019-04-14T01:47:51.081Z,37.27
2019-04-14T01:50:45.173Z,37.93
2019-04-14T01:53:33.549Z,37.87
2019-04-14T01:56:23.051Z,40.60
2019-04-14T01:59:10.778Z,40.67
2019-04-14T02:01:57.088Z,39.43
2019-04-14T02:04:44.188Z,39.10
2019-04-14T02:07:29.990Z,42.80
2019-04-14T02:10:17.262Z,42.37
2019-04-14T02:13:02.868Z,42.47
2019-04-14T02:15:48.525Z,39.67
2019-04-14T02:18:34.166Z,40.33
2019-04-14T02:21:19.468Z,40.63
2019-04-14T02:24:04.949Z,41.33
2019-04-14T02:26:50.363Z,42.63
2019-04-14T02:29:36.248Z,40.27
2019-04-14T02:32:51.222Z,40.57
2019-04-14T02:35:40.719Z,45.17
2019-04-14T02:41:18.427Z,37.93
2019-04-14T02:44:04.625Z,37.93
2019-04-14T02:46:47.672Z,38.93
2019-04-14T02:57:57.268Z,39.07
2019-04-14T03:11:46.257Z,35.17
2019-04-14T03:17:30.135Z,34.80
2019-04-14T03:23:14.934Z,34.63
2019-04-14T03:25:51.353Z,35.00
2019-04-14T03:28:51.275Z,34.13
2019-04-14T03:31:49.595Z,32.77
2019-04-14T03:37:31.350Z,35.77
2019-04-14T03:42:45.800Z,35.40
2019-04-14T03:45:39.504Z,37.43
2019-04-14T03:51:00.424Z,35.00
2019-04-14T03:53:45.839Z,35.83
2019-04-14T03:56:14.392Z,33.97
2019-04-14T03:58:59.721Z,42.47
2019-04-14T04:01:45.707Z,33.57
2019-04-14T04:04:31.589Z,38.73
2019-04-14T04:07:17.079Z,38.03
2019-04-14T04:10:05.588Z,37.83
2019-04-14T04:12:51.147Z,38.70
2019-04-14T04:15:36.513Z,41.63
2019-04-14T04:18:26.586Z,44.70
2019-04-14T04:21:20.680Z,42.40
2019-04-14T04:24:10.730Z,39.90
2019-04-14T04:26:58.202Z,45.63
2019-04-14T04:29:46.258Z,43.33
2019-04-14T04:32:49.589Z,47.73
2019-04-14T04:35:39.293Z,43.33
2019-04-14T04:38:33.422Z,44.53
2019-04-14T04:41:19.521Z,43.07
2019-04-14T04:44:04.969Z,43.27
2019-04-14T04:46:50.440Z,44.83
2019-04-14T04:49:36.183Z,43.27
2019-04-14T04:52:21.581Z,40.17
2019-04-14T04:55:06.929Z,39.23
2019-04-14T04:57:52.403Z,41.67
2019-04-14T05:00:37.644Z,45.20
2019-04-14T05:03:25.428Z,47.60
2019-04-14T05:06:41.512Z,43.00
2019-04-14T05:09:36.328Z,43.00
2019-04-14T05:12:26.302Z,42.77
2019-04-14T05:15:16.215Z,43.40
2019-04-14T05:18:01.232Z,40.77
2019-04-14T05:20:46.726Z,43.03
2019-04-14T05:23:32.126Z,50.30
2019-04-14T05:26:19.799Z,40.83
2019-04-14T05:29:05.701Z,41.63
2019-04-14T05:31:51.148Z,39.37
2019-04-14T05:34:36.933Z,40.30
2019-04-14T05:37:22.510Z,39.30
2019-04-14T05:40:08.260Z,41.97
2019-04-14T05:42:53.705Z,41.17
2019-04-14T05:45:39.525Z,52.00
2019-04-14T05:48:25.130Z,43.00
2019-04-14T05:51:10.985Z,41.03
2019-04-14T05:53:56.644Z,38.27
2019-04-14T05:56:42.511Z,36.83
2019-04-14T05:59:28.594Z,38.37
2019-04-14T06:02:13.811Z,38.97
2019-04-14T06:04:59.333Z,35.77
2019-04-14T06:07:44.397Z,36.13
2019-04-14T06:10:29.046Z,33.70
2019-04-14T06:13:13.902Z,33.10
2019-04-14T06:15:58.879Z,30.03
2019-04-14T06:18:43.610Z,28.63
2019-04-14T06:21:28.651Z,30.93
2019-04-14T06:24:13.485Z,27.30
2019-04-14T06:26:58.237Z,28.47
2019-04-14T06:29:43.532Z,25.00
2019-04-14T06:32:30.405Z,28.13
2019-04-14T06:35:20.391Z,25.43
2019-04-14T06:38:07.334Z,26.27
2019-04-14T06:40:54.443Z,24.63
2019-04-14T06:43:48.670Z,25.00
2019-04-14T06:46:26.807Z,24.73
2019-04-14T06:49:11.655Z,26.60
2019-04-14T06:51:58.380Z,26.70
2019-04-14T06:54:43.309Z,28.37
2019-04-14T06:57:28.158Z,23.97
2019-04-14T07:00:13.212Z,27.30
2019-04-14T07:02:58.306Z,25.17
2019-04-14T07:05:43.693Z,23.27
2019-04-14T07:08:29.927Z,24.30
2019-04-14T07:11:16.745Z,23.77
2019-04-14T07:14:02.251Z,22.90
2019-04-14T07:16:47.104Z,21.60
2019-04-14T07:19:32.090Z,23.83
2019-04-14T07:22:16.865Z,22.43
2019-04-14T07:25:01.795Z,22.93
2019-04-14T07:27:46.705Z,21.13
2019-04-14T07:30:33.270Z,22.37
2019-04-14T07:33:20.184Z,24.17
2019-04-14T07:36:13.025Z,23.60
2019-04-14T07:39:14.666Z,21.73
2019-04-14T07:42:07.207Z,20.47
2019-04-14T07:44:56.589Z,22.10
2019-04-14T07:47:43.502Z,21.07
2019-04-14T07:50:33.056Z,23.77
2019-04-14T07:53:26.411Z,22.57
2019-04-14T07:56:13.146Z,25.80
2019-04-14T07:59:05.973Z,24.67
2019-04-14T08:02:01.979Z,20.13
2019-04-14T08:04:51.212Z,20.17
2019-04-14T08:07:36.189Z,20.20
2019-04-14T08:10:21.617Z,20.37
2019-04-14T08:13:06.661Z,20.83
2019-04-14T08:15:52.538Z,19.93
2019-04-14T08:18:37.955Z,21.30
2019-04-14T08:21:23.132Z,19.43
2019-04-14T08:24:08.173Z,23.03
2019-04-14T08:26:53.166Z,20.13
2019-04-14T08:29:39.472Z,21.50
2019-04-14T08:32:25.259Z,21.33
2019-04-14T08:35:10.496Z,19.97
2019-04-14T08:37:55.860Z,18.10
2019-04-14T08:40:41.235Z,20.03
2019-04-14T08:43:45.347Z,20.00
2019-04-14T08:46:41.077Z,21.50
2019-04-14T08:49:36.822Z,20.70
2019-04-14T08:52:24.419Z,19.40
2019-04-14T08:55:11.367Z,21.23
2019-04-14T08:58:00.913Z,18.80
2019-04-14T09:00:53.749Z,20.60
2019-04-14T09:03:52.662Z,20.37
2019-04-14T09:06:45.252Z,18.90
2019-04-14T09:09:38.017Z,22.93
2019-04-14T09:12:24.905Z,19.20
2019-04-14T09:15:10.544Z,18.97
2019-04-14T09:17:56.975Z,20.20
2019-04-14T09:20:51.721Z,18.63
2019-04-14T09:23:28.870Z,21.47
2019-04-14T09:26:13.622Z,20.80
2019-04-14T09:28:58.556Z,19.47
2019-04-14T09:31:43.446Z,20.23
2019-04-14T09:34:28.710Z,22.77
2019-04-14T09:37:15.297Z,21.43
2019-04-14T09:40:00.377Z,17.90
2019-04-14T09:42:45.915Z,19.53
2019-04-14T09:45:32.710Z,17.73
2019-04-14T09:48:17.514Z,17.20
2019-04-14T09:51:04.971Z,18.43
2019-04-14T09:53:49.090Z,21.90
2019-04-14T09:56:34.936Z,17.57
2019-04-14T09:59:20.099Z,17.77
2019-04-14T10:02:06.766Z,16.83
2019-04-14T10:04:51.989Z,17.33
2019-04-14T10:07:37.510Z,20.87
2019-04-14T10:10:22.537Z,16.60
2019-04-14T10:13:07.371Z,16.70
2019-04-14T10:15:52.007Z,18.70
2019-04-14T10:18:36.770Z,20.07
2019-04-14T10:21:21.803Z,19.10
2019-04-14T10:24:06.784Z,17.83
2019-04-14T10:26:51.941Z,17.90
2019-04-14T10:29:38.209Z,17.90
2019-04-14T10:32:23.090Z,19.80
2019-04-14T10:35:09.350Z,17.23
2019-04-14T10:37:54.237Z,21.97
2019-04-14T10:40:39.856Z,18.37
2019-04-14T10:43:25.391Z,17.60
2019-04-14T10:46:10.601Z,18.60
2019-04-14T10:48:56.026Z,20.50
2019-04-14T10:51:41.758Z,21.10
2019-04-14T10:54:27.261Z,18.30
2019-04-14T10:57:11.861Z,19.53
2019-04-14T10:59:57.105Z,18.47
2019-04-14T11:02:42.331Z,17.20
2019-04-14T11:05:29.234Z,17.20
2019-04-14T11:08:14.570Z,19.33
2019-04-14T11:10:59.664Z,15.67
2019-04-14T11:13:44.980Z,18.13
2019-04-14T11:16:30.066Z,18.90
2019-04-14T11:19:15.214Z,19.00
2019-04-14T11:22:00.590Z,16.30
2019-04-14T11:24:45.389Z,17.93
2019-04-14T11:27:30.664Z,19.27
2019-04-14T11:30:18.849Z,18.10
2019-04-14T11:33:11.183Z,17.23
2019-04-14T11:36:14.408Z,19.73
2019-04-14T11:39:04.350Z,17.17
2019-04-14T11:41:49.629Z,17.97
2019-04-14T11:44:34.951Z,18.00
2019-04-14T11:47:20.774Z,16.97
2019-04-14T11:50:06.028Z,19.00
2019-04-14T11:52:51.169Z,17.43
2019-04-14T11:55:36.619Z,18.67
2019-04-14T11:58:21.812Z,16.90
2019-04-14T12:01:14.824Z,18.80
2019-04-14T12:04:01.368Z,19.50
2019-04-14T12:06:48.569Z,20.50
2019-04-14T12:09:35.822Z,19.40
2019-04-14T12:12:22.775Z,17.37
2019-04-14T12:15:08.548Z,18.87
2019-04-14T12:17:53.370Z,18.83
2019-04-14T12:20:38.460Z,16.07
2019-04-14T12:23:23.636Z,19.03
2019-04-14T12:26:08.840Z,16.13
2019-04-14T12:28:55.802Z,16.17
2019-04-14T12:31:41.980Z,17.13
2019-04-14T12:34:27.247Z,17.77
2019-04-14T12:37:12.604Z,15.83
2019-04-14T12:39:57.973Z,16.00
2019-04-14T12:42:48.415Z,15.93
2019-04-14T12:45:45.058Z,16.33
2019-04-14T12:48:41.297Z,15.53
2019-04-14T12:51:30.796Z,16.17
2019-04-14T12:54:16.331Z,16.23
2019-04-14T12:57:01.621Z,15.73
2019-04-14T12:59:47.943Z,15.80
2019-04-14T13:02:35.246Z,14.90
2019-04-14T13:05:20.229Z,17.37
2019-04-14T13:08:05.625Z,18.23
2019-04-14T13:10:50.483Z,16.27
2019-04-14T13:13:35.546Z,16.27
2019-04-14T13:16:20.772Z,17.50
2019-04-14T13:19:06.167Z,16.53
2019-04-14T13:21:51.364Z,17.93
2019-04-14T13:24:36.475Z,17.43
2019-04-14T13:27:23.255Z,16.27
2019-04-14T13:30:11.320Z,17.00
2019-04-14T13:32:56.360Z,17.90
2019-04-14T13:35:41.401Z,18.03
2019-04-14T13:38:26.827Z,17.67
2019-04-14T13:41:12.178Z,16.63
2019-04-14T13:43:57.411Z,16.30
2019-04-14T13:46:43.037Z,16.53
2019-04-14T13:49:28.207Z,17.33
2019-04-14T13:52:14.128Z,17.40
2019-04-14T13:54:58.905Z,17.10
2019-04-14T13:57:44.517Z,22.07
2019-04-14T14:00:29.938Z,17.37
2019-04-14T14:03:15.216Z,16.70
2019-04-14T14:06:00.518Z,16.43
2019-04-14T14:08:45.582Z,17.27
2019-04-14T14:11:38.297Z,16.50
2019-04-14T14:14:27.886Z,17.17
2019-04-14T14:17:15.209Z,19.33
2019-04-14T14:20:04.539Z,16.97
2019-04-14T14:23:01.312Z,18.90
2019-04-14T14:25:48.610Z,17.43
2019-04-14T14:28:33.329Z,16.43
2019-04-14T14:31:20.204Z,17.37
2019-04-14T14:34:05.246Z,16.10
2019-04-14T14:36:51.339Z,17.07
2019-04-14T14:39:36.497Z,17.47
2019-04-14T14:42:21.344Z,18.20
2019-04-14T14:45:14.403Z,15.73
2019-04-14T14:48:04.016Z,16.47
2019-04-14T14:51:07.807Z,15.47
2019-04-14T14:53:52.605Z,13.80
2019-04-14T14:56:38.025Z,13.13
2019-04-14T14:59:24.288Z,12.87
2019-04-14T15:02:09.884Z,12.73
2019-04-14T15:04:55.234Z,12.50
2019-04-14T15:07:40.420Z,12.60
2019-04-14T15:10:25.786Z,12.80
2019-04-14T15:13:11.297Z,13.03
2019-04-14T15:15:56.672Z,13.60
2019-04-14T15:18:42.094Z,13.03
2019-04-14T15:21:27.022Z,12.63
2019-04-14T15:24:11.973Z,11.70
2019-04-14T15:26:57.006Z,11.63
2019-04-14T15:29:42.309Z,12.03
2019-04-14T15:32:27.541Z,12.03
2019-04-14T15:35:12.680Z,12.80
2019-04-14T15:37:58.117Z,15.27
2019-04-14T15:40:43.534Z,10.60
2019-04-14T15:43:28.853Z,12.13
2019-04-14T15:46:15.723Z,11.03
2019-04-14T15:49:00.959Z,10.97
2019-04-14T15:51:46.363Z,11.13
2019-04-14T15:54:31.993Z,11.50
2019-04-14T15:57:24.911Z,10.27
2019-04-14T16:00:28.794Z,10.80
2019-04-14T16:03:21.408Z,10.70
2019-04-14T16:06:13.535Z,10.60
2019-04-14T16:09:03.378Z,10.83
2019-04-14T16:11:56.223Z,10.00
2019-04-14T16:14:58.321Z,9.87
2019-04-14T16:18:00.553Z,10.53
2019-04-14T16:20:45.814Z,11.87
2019-04-14T16:23:31.625Z,13.80
2019-04-14T16:26:37.171Z,10.40
2019-04-14T16:29:32.929Z,10.33
2019-04-14T16:32:34.247Z,10.30
2019-04-14T16:35:21.161Z,10.43
2019-04-14T16:38:06.547Z,10.50
2019-04-14T16:40:51.577Z,9.13
2019-04-14T16:43:36.730Z,8.00
2019-04-14T16:46:21.806Z,7.87
2019-04-14T16:49:07.306Z,8.53
2019-04-14T16:51:54.368Z,7.83
2019-04-14T16:54:46.923Z,7.70
2019-04-14T16:57:49.469Z,7.97
2019-04-14T17:00:37.241Z,7.40
2019-04-14T17:03:22.782Z,7.67
2019-04-14T17:06:08.219Z,8.03
2019-04-14T17:08:54.073Z,7.47
2019-04-14T17:11:39.311Z,7.13
2019-04-14T17:14:26.459Z,7.13
2019-04-14T17:17:13.579Z,7.57
2019-04-14T17:20:03.315Z,7.40
2019-04-14T17:23:06.828Z,9.90
2019-04-14T17:25:53.599Z,7.37
2019-04-14T17:28:57.095Z,7.23
2019-04-14T17:32:00.970Z,6.90
2019-04-14T17:34:50.480Z,7.20
2019-04-14T17:37:43.215Z,7.90
2019-04-14T17:40:35.672Z,7.83
2019-04-14T17:43:23.071Z,5.63
2019-04-14T17:46:12.818Z,5.70
2019-04-14T17:49:11.734Z,5.40
2019-04-14T17:52:15.131Z,4.40
2019-04-14T17:55:04.558Z,4.87
2019-04-14T17:58:00.628Z,5.17
2019-04-14T18:01:00.073Z,5.60
2019-04-14T18:03:53.275Z,5.03
2019-04-14T18:06:43.310Z,5.50
2019-04-14T18:09:45.473Z,6.10
2019-04-14T18:12:32.799Z,6.37
2019-04-14T18:15:19.874Z,5.60
2019-04-14T18:18:09.906Z,6.17
2019-04-14T18:20:57.460Z,5.80
2019-04-14T18:23:42.332Z,5.50
2019-04-14T18:26:27.372Z,6.37
2019-04-14T18:29:26.493Z,6.27
2019-04-14T18:32:13.240Z,6.07
2019-04-14T18:35:06.059Z,5.80
2019-04-14T18:37:52.920Z,6.90
2019-04-14T18:40:45.548Z,6.87
2019-04-14T18:43:38.018Z,6.87
2019-04-14T18:46:37.062Z,7.33
2019-04-14T18:49:29.599Z,7.97
2019-04-14T18:52:19.546Z,7.33
2019-04-14T18:55:06.939Z,7.97
2019-04-14T18:58:11.514Z,8.70
2019-04-14T19:00:58.727Z,9.00
2019-04-14T19:03:48.608Z,9.37
2019-04-14T19:06:34.739Z,8.83
2019-04-14T19:09:21.545Z,8.67
2019-04-14T19:12:21.139Z,10.40
2019-04-14T19:15:17.855Z,9.23
2019-04-14T19:18:11.044Z,9.67
2019-04-14T19:20:58.559Z,10.00
2019-04-14T19:23:46.426Z,9.27
2019-04-14T19:26:31.357Z,10.20
2019-04-14T19:29:38.198Z,10.83
2019-04-14T19:32:24.011Z,10.63
2019-04-14T19:35:09.427Z,11.23
2019-04-14T19:37:54.560Z,10.83
2019-04-14T19:40:39.730Z,11.63
2019-04-14T19:43:25.125Z,11.57
2019-04-14T19:46:10.430Z,11.20
2019-04-14T19:48:55.726Z,11.30
2019-04-14T19:51:41.639Z,11.23
2019-04-14T19:54:27.348Z,11.47
2019-04-14T19:57:13.129Z,11.67
2019-04-14T19:59:58.097Z,12.70
2019-04-14T20:02:43.067Z,11.80
2019-04-14T20:05:28.280Z,12.93
2019-04-14T20:08:14.944Z,13.17
2019-04-14T20:11:00.332Z,13.67
2019-04-14T20:13:46.661Z,14.60
2019-04-14T20:16:50.306Z,14.70
2019-04-14T20:19:53.673Z,14.03
2019-04-14T20:22:49.513Z,14.13
2019-04-14T20:25:49.066Z,14.27
2019-04-14T20:28:39.799Z,13.80
2019-04-14T20:31:44.350Z,16.93
2019-04-14T20:34:29.543Z,15.83
2019-04-14T20:37:14.997Z,16.00
2019-04-14T20:40:02.198Z,17.60
2019-04-14T20:42:47.886Z,16.17
2019-04-14T20:45:33.253Z,17.27
2019-04-14T20:48:18.729Z,16.47
2019-04-14T20:51:03.783Z,17.20
2019-04-14T20:53:49.136Z,19.07
2019-04-14T20:56:34.061Z,18.97
2019-04-14T20:59:20.598Z,19.70
2019-04-14T21:02:07.529Z,21.50
2019-04-14T21:04:57.813Z,20.83
2019-04-14T21:08:01.039Z,19.60
2019-04-14T21:10:47.839Z,18.87
2019-04-14T21:13:34.720Z,20.43
2019-04-14T21:16:24.227Z,24.57
2019-04-14T21:19:20.094Z,24.30
2019-04-14T21:22:15.873Z,22.93
2019-04-14T21:25:15.170Z,23.53
2019-04-14T21:28:19.467Z,23.57
2019-04-14T21:31:09.098Z,24.03
2019-04-14T21:34:02.772Z,24.00
2019-04-14T21:36:50.271Z,24.47
2019-04-14T21:39:55.526Z,23.37
2019-04-14T21:42:42.057Z,26.27
2019-04-14T21:45:27.682Z,25.10
2019-04-14T21:48:12.839Z,27.93
2019-04-14T21:50:58.249Z,27.83
2019-04-14T21:53:44.434Z,29.97
2019-04-14T21:56:31.431Z,27.83
2019-04-14T21:59:18.137Z,27.10
2019-04-14T22:02:21.506Z,27.07
2019-04-14T22:05:20.611Z,27.97
2019-04-14T22:08:25.423Z,29.43
2019-04-14T22:11:24.733Z,27.90
2019-04-14T22:14:10.201Z,31.33
2019-04-14T22:16:54.928Z,27.83
2019-04-14T22:19:40.278Z,29.83
2019-04-14T22:22:25.187Z,29.77
2019-04-14T22:25:10.403Z,29.37
2019-04-14T22:27:55.703Z,30.80
2019-04-14T22:30:41.571Z,30.23
2019-04-14T22:33:26.793Z,29.63
2019-04-14T22:36:11.847Z,28.90
2019-04-14T22:38:56.942Z,29.37
2019-04-14T22:41:42.450Z,27.87
2019-04-14T22:44:29.304Z,29.33
2019-04-14T22:47:14.076Z,30.13
2019-04-14T22:49:58.888Z,29.20
2019-04-14T22:52:43.603Z,29.13
2019-04-14T22:55:28.466Z,30.87
2019-04-14T22:58:13.693Z,30.77
2019-04-14T23:01:03.708Z,31.70
2019-04-14T23:03:50.557Z,31.27
2019-04-14T23:06:43.228Z,29.80
2019-04-14T23:09:30.294Z,30.17
2019-04-14T23:12:20.102Z,30.33
2019-04-14T23:15:07.658Z,32.10
2019-04-14T23:17:54.479Z,31.07
2019-04-14T23:20:48.497Z,30.20
2019-04-14T23:23:35.920Z,31.07
2019-04-14T23:26:20.778Z,30.90
2019-04-14T23:29:07.468Z,33.07
2019-04-14T23:31:52.508Z,27.87
2019-04-14T23:34:37.351Z,29.30
2019-04-14T23:37:23.115Z,32.70
2019-04-14T23:40:08.164Z,27.67
2019-04-14T23:42:53.504Z,31.00
2019-04-14T23:45:39.066Z,29.77
2019-04-14T23:48:23.905Z,31.93
2019-04-14T23:51:09.271Z,30.07
2019-04-14T23:53:55.627Z,31.13
2019-04-14T23:56:40.876Z,30.67
2019-04-14T23:59:25.978Z,30.20
